createdAt,value
2023-02-08T00:02:09.452Z,43.35
2023-02-08T00:04:36.541Z,45.17
2023-02-08T00:07:04.314Z,45.40
2023-02-08T00:09:31.465Z,49.45
2023-02-08T00:11:58.630Z,44.78
2023-02-08T00:14:25.840Z,49.05
2023-02-08T00:16:52.993Z,44.45
2023-02-08T00:19:20.228Z,48.13
2023-02-08T00:21:47.790Z,46.60
2023-02-08T00:24:14.958Z,49.55
2023-02-08T00:26:42.108Z,47.63
2023-02-08T00:29:09.259Z,53.15
2023-02-08T00:31:36.668Z,48.63
2023-02-08T00:34:03.919Z,46.42
2023-02-08T00:36:31.030Z,50.60
2023-02-08T00:38:58.179Z,48.97
2023-02-08T00:41:25.388Z,46.22
2023-02-08T00:43:52.550Z,49.08
2023-02-08T00:46:20.599Z,49.75
2023-02-08T00:48:47.845Z,46.22
2023-02-08T00:51:15.293Z,52.90
2023-02-08T00:53:44.570Z,53.35
2023-02-08T00:56:13.708Z,46.63
2023-02-08T00:58:41.624Z,46.60
2023-02-08T01:01:09.432Z,48.08
2023-02-08T01:03:37.893Z,45.65
2023-02-08T01:06:07.796Z,49.05
2023-02-08T01:08:34.970Z,45.13
2023-02-08T01:11:04.916Z,46.15
2023-02-08T01:13:32.079Z,49.53
2023-02-08T01:16:10.248Z,45.25
2023-02-08T01:18:38.719Z,47.55
2023-02-08T01:21:08.607Z,46.15
2023-02-08T01:23:36.290Z,48.40
2023-02-08T01:26:04.561Z,45.58
2023-02-08T01:28:31.830Z,50.70
2023-02-08T01:30:59.350Z,45.72
2023-02-08T01:33:26.508Z,43.45
2023-02-08T01:35:53.801Z,49.25
2023-02-08T01:38:21.105Z,48.28
2023-02-08T01:40:48.304Z,47.45
2023-02-08T01:43:26.197Z,46.67
2023-02-08T01:45:54.004Z,46.60
2023-02-08T01:48:25.784Z,47.72
2023-02-08T01:51:09.753Z,42.50
2023-02-08T01:53:37.215Z,45.15
2023-02-08T01:56:07.163Z,46.35
2023-02-08T01:58:36.681Z,43.90
2023-02-08T02:01:05.407Z,43.78
2023-02-08T02:03:34.216Z,40.15
2023-02-08T02:06:04.838Z,42.75
2023-02-08T02:08:32.115Z,44.42
2023-02-08T02:10:59.321Z,42.90
2023-02-08T02:13:27.415Z,39.05
2023-02-08T02:15:55.013Z,44.85
2023-02-08T02:18:25.603Z,37.95
2023-02-08T02:21:16.945Z,38.80
2023-02-08T02:24:05.732Z,37.67
2023-02-08T02:26:50.906Z,38.88
2023-02-08T02:29:23.834Z,42.58
2023-02-08T02:32:12.507Z,37.92
2023-02-08T02:34:47.590Z,36.42
2023-02-08T02:37:49.563Z,38.40
2023-02-08T02:40:43.109Z,37.28
2023-02-08T02:43:48.842Z,41.25
2023-02-08T02:46:24.378Z,39.95
2023-02-08T02:48:54.597Z,40.28
2023-02-08T02:51:27.397Z,38.38
2023-02-08T02:54:06.898Z,41.00
2023-02-08T02:56:37.400Z,42.88
2023-02-08T02:59:06.932Z,37.60
2023-02-08T03:01:35.123Z,41.42
2023-02-08T03:04:16.753Z,39.58
2023-02-08T03:06:59.121Z,45.55
2023-02-08T03:09:35.299Z,37.85
2023-02-08T03:12:05.500Z,38.85
2023-02-08T03:14:51.916Z,38.65
2023-02-08T03:17:28.114Z,38.08
2023-02-08T03:19:57.970Z,36.65
2023-02-08T03:22:44.432Z,35.28
2023-02-08T03:25:21.636Z,34.22
2023-02-08T03:28:07.636Z,40.92
2023-02-08T03:30:45.251Z,36.75
2023-02-08T03:33:34.931Z,33.70
2023-02-08T03:36:05.248Z,31.55
2023-02-08T03:38:36.688Z,37.17
2023-02-08T03:41:07.071Z,37.20
2023-02-08T03:43:37.844Z,36.30
2023-02-08T03:46:25.938Z,31.65
2023-02-08T03:49:03.288Z,32.70
2023-02-08T03:51:31.251Z,35.17
2023-02-08T03:54:01.532Z,38.47
2023-02-08T03:57:03.663Z,32.70
2023-02-08T03:59:37.349Z,33.08
2023-02-08T04:02:07.436Z,33.53
2023-02-08T04:04:37.112Z,37.45
2023-02-08T04:07:05.108Z,35.13
2023-02-08T04:09:32.252Z,30.52
2023-02-08T04:11:59.434Z,33.10
2023-02-08T04:14:26.586Z,33.53
2023-02-08T04:16:53.768Z,31.50
2023-02-08T04:19:20.952Z,32.42
2023-02-08T04:21:48.199Z,30.48
2023-02-08T04:24:15.410Z,33.30
2023-02-08T04:26:42.574Z,31.05
2023-02-08T04:29:09.744Z,32.33
2023-02-08T04:31:37.031Z,32.28
2023-02-08T04:34:04.476Z,32.80
2023-02-08T04:36:31.721Z,32.25
2023-02-08T04:38:58.901Z,35.42
2023-02-08T04:41:26.097Z,31.73
2023-02-08T04:43:53.400Z,33.72
2023-02-08T04:46:20.703Z,35.78
2023-02-08T04:48:47.937Z,36.53
2023-02-08T04:51:15.140Z,32.65
2023-02-08T04:53:42.328Z,36.28
2023-02-08T04:56:09.484Z,35.03
2023-02-08T04:58:36.788Z,39.08
2023-02-08T05:01:07.992Z,39.75
2023-02-08T05:03:35.683Z,34.42
2023-02-08T05:06:03.193Z,35.42
2023-02-08T05:08:30.622Z,32.97
2023-02-08T05:10:58.022Z,35.53
2023-02-08T05:13:25.814Z,37.88
2023-02-08T05:15:52.987Z,33.35
2023-02-08T05:18:20.141Z,35.33
2023-02-08T05:20:57.733Z,37.47
2023-02-08T05:23:25.551Z,33.85
2023-02-08T05:25:53.084Z,36.20
2023-02-08T05:28:20.356Z,34.33
2023-02-08T05:30:47.877Z,32.78
2023-02-08T05:33:15.205Z,37.05
2023-02-08T05:35:42.521Z,35.38
2023-02-08T05:38:09.655Z,35.22
2023-02-08T05:40:36.904Z,37.88
2023-02-08T05:43:04.043Z,38.28
2023-02-08T05:45:31.166Z,35.72
2023-02-08T05:47:58.551Z,37.50
2023-02-08T05:50:25.741Z,34.72
2023-02-08T05:52:52.929Z,40.50
2023-02-08T05:55:20.176Z,35.90
2023-02-08T05:57:47.293Z,38.00
2023-02-08T06:00:15.117Z,35.50
2023-02-08T06:02:42.310Z,36.97
2023-02-08T06:05:09.425Z,39.70
2023-02-08T06:07:36.676Z,39.10
2023-02-08T06:10:04.235Z,41.42
2023-02-08T06:12:31.363Z,43.05
2023-02-08T06:14:58.551Z,44.25
2023-02-08T06:17:25.684Z,39.00
2023-02-08T06:19:52.903Z,41.25
2023-02-08T06:22:20.113Z,36.40
2023-02-08T06:24:48.614Z,42.83
2023-02-08T06:27:15.769Z,43.22
2023-02-08T06:29:42.934Z,40.17
2023-02-08T06:32:10.213Z,45.83
2023-02-08T06:34:37.460Z,39.88
2023-02-08T06:37:05.576Z,41.67
2023-02-08T06:39:32.882Z,38.03
2023-02-08T06:42:00.119Z,40.50
2023-02-08T06:44:27.371Z,42.60
2023-02-08T06:46:54.592Z,41.65
2023-02-08T06:49:21.831Z,45.08
2023-02-08T06:51:49.587Z,39.28
2023-02-08T06:54:16.770Z,38.72
2023-02-08T06:56:44.420Z,41.45
2023-02-08T06:59:11.785Z,37.05
2023-02-08T07:01:39.110Z,41.28
2023-02-08T07:04:06.234Z,43.25
2023-02-08T07:06:33.769Z,39.75
2023-02-08T07:09:02.573Z,41.35
2023-02-08T07:11:29.825Z,41.22
2023-02-08T07:13:57.027Z,47.35
2023-02-08T07:16:24.608Z,46.72
2023-02-08T07:18:51.773Z,46.47
2023-02-08T07:21:19.105Z,43.92
2023-02-08T07:23:46.217Z,42.65
2023-02-08T07:26:17.211Z,41.97
2023-02-08T07:28:44.429Z,43.58
2023-02-08T07:31:17.107Z,40.25
2023-02-08T07:33:44.648Z,40.13
2023-02-08T07:36:11.946Z,44.35
2023-02-08T07:38:39.398Z,43.13
2023-02-08T07:41:09.736Z,43.72
2023-02-08T07:46:25.123Z,41.35
2023-02-08T07:48:53.450Z,44.45
2023-02-08T07:51:20.634Z,45.97
2023-02-08T07:53:47.837Z,43.15
2023-02-08T07:56:15.034Z,42.70
2023-02-08T07:58:42.205Z,42.22
2023-02-08T08:01:21.340Z,41.15
2023-02-08T08:03:50.949Z,43.33
2023-02-08T08:06:21.807Z,43.75
2023-02-08T08:08:49.131Z,41.03
2023-02-08T08:11:17.495Z,39.90
2023-02-08T08:13:44.796Z,43.30
2023-02-08T08:16:11.988Z,46.85
2023-02-08T08:18:39.117Z,40.33
2023-02-08T08:21:06.602Z,45.20
2023-02-08T08:23:33.852Z,42.58
2023-02-08T08:26:01.061Z,42.65
2023-02-08T08:28:28.272Z,41.63
2023-02-08T08:30:57.503Z,44.10
2023-02-08T08:33:24.712Z,43.78
2023-02-08T08:35:51.939Z,50.78
2023-02-08T08:38:19.046Z,45.33
2023-02-08T08:40:46.230Z,46.08
2023-02-08T08:43:13.386Z,45.25
2023-02-08T08:45:40.548Z,44.95
2023-02-08T08:48:07.704Z,49.35
2023-02-08T08:50:34.826Z,46.75
2023-02-08T08:53:01.952Z,42.50
2023-02-08T08:55:29.171Z,48.10
2023-02-08T08:57:56.430Z,43.92
2023-02-08T09:00:23.578Z,53.30
2023-02-08T09:02:50.695Z,48.75
2023-02-08T09:05:17.886Z,52.33
2023-02-08T09:07:45.030Z,46.50
2023-02-08T09:10:12.258Z,50.47
2023-02-08T09:12:39.471Z,57.30
2023-02-08T09:15:06.922Z,54.15
2023-02-08T09:17:34.065Z,54.25
2023-02-08T09:20:02.310Z,55.05
2023-02-08T09:22:30.410Z,53.53
2023-02-08T09:24:57.614Z,58.03
2023-02-08T09:27:24.737Z,50.33
2023-02-08T09:29:51.845Z,50.97
2023-02-08T09:32:21.116Z,55.78
2023-02-08T09:34:48.272Z,50.30
2023-02-08T09:37:17.306Z,51.55
2023-02-08T09:39:44.784Z,55.45
2023-02-08T09:42:12.859Z,48.63
2023-02-08T09:44:47.934Z,56.35
2023-02-08T09:47:29.267Z,51.67
2023-02-08T09:50:05.161Z,49.08
2023-02-08T09:52:40.938Z,49.33
2023-02-08T09:57:43.666Z,48.55
2023-02-08T10:00:16.768Z,55.22
2023-02-08T10:02:44.469Z,51.85
2023-02-08T10:05:20.660Z,61.92
2023-02-08T10:07:47.890Z,54.20
2023-02-08T10:10:42.511Z,55.33
2023-02-08T10:13:41.645Z,52.22
2023-02-08T10:16:36.896Z,51.13
2023-02-08T10:19:19.333Z,52.35
2023-02-08T10:22:01.413Z,53.70
2023-02-08T10:25:00.870Z,49.03
2023-02-08T10:27:53.994Z,51.20
2023-02-08T10:30:41.634Z,52.10
2023-02-08T10:33:32.424Z,53.25
2023-02-08T10:35:59.655Z,50.22
2023-02-08T10:38:45.468Z,53.33
2023-02-08T10:41:19.650Z,52.47
2023-02-08T10:43:53.910Z,50.25
2023-02-08T10:46:29.965Z,52.55
2023-02-08T10:49:00.018Z,56.38
2023-02-08T10:51:28.541Z,48.83
2023-02-08T10:53:55.865Z,53.13
2023-02-08T10:56:39.102Z,49.85
2023-02-08T10:59:22.120Z,53.78
2023-02-08T11:01:49.950Z,53.65
2023-02-08T11:04:18.002Z,50.90
2023-02-08T11:06:46.599Z,53.55
2023-02-08T11:09:30.712Z,49.92
2023-02-08T11:11:59.846Z,54.22
2023-02-08T11:14:45.638Z,52.03
2023-02-08T11:17:31.794Z,49.65
2023-02-08T11:19:59.498Z,45.30
2023-02-08T11:22:28.164Z,50.63
2023-02-08T11:25:00.104Z,48.42
2023-02-08T11:27:31.812Z,46.88
2023-02-08T11:30:13.994Z,50.60
2023-02-08T11:32:42.390Z,46.72
2023-02-08T11:35:21.906Z,48.50
2023-02-08T11:37:57.387Z,45.38
2023-02-08T11:40:30.085Z,50.95
2023-02-08T11:42:57.695Z,47.28
2023-02-08T11:45:29.820Z,43.75
2023-02-08T11:47:57.153Z,45.35
2023-02-08T11:50:27.710Z,50.78
2023-02-08T11:53:03.102Z,47.35
2023-02-08T11:55:33.028Z,49.83
2023-02-08T11:58:23.671Z,48.05
2023-02-08T12:01:03.659Z,41.03
2023-02-08T12:03:34.819Z,42.53
2023-02-08T12:06:18.813Z,50.17
2023-02-08T12:09:13.392Z,41.45
2023-02-08T12:11:45.584Z,43.47
2023-02-08T12:14:27.346Z,42.13
2023-02-08T12:17:20.118Z,44.90
2023-02-08T12:20:08.769Z,40.95
2023-02-08T12:23:05.261Z,40.17
2023-02-08T12:25:46.261Z,40.25
2023-02-08T12:28:42.454Z,36.90
2023-02-08T12:31:18.416Z,39.03
2023-02-08T12:34:05.079Z,38.17
2023-02-08T12:36:37.806Z,35.05
2023-02-08T12:39:58.120Z,34.83
2023-02-08T12:43:07.255Z,39.42
2023-02-08T12:45:41.254Z,44.78
2023-02-08T12:49:05.952Z,35.50
2023-02-08T12:51:44.789Z,34.58
2023-02-08T12:54:26.739Z,35.42
2023-02-08T12:57:02.031Z,36.13
2023-02-08T12:59:43.774Z,36.58
2023-02-08T13:02:31.162Z,38.13
2023-02-08T13:05:01.957Z,38.67
2023-02-08T13:07:42.516Z,39.28
2023-02-08T13:10:29.793Z,40.78
2023-02-08T13:12:59.800Z,36.92
2023-02-08T13:15:36.503Z,38.58
2023-02-08T13:18:20.593Z,36.95
2023-02-08T13:20:51.831Z,37.42
2023-02-08T13:23:26.407Z,33.55
2023-02-08T13:25:56.662Z,34.58
2023-02-08T13:28:25.505Z,37.00
2023-02-08T13:30:54.754Z,34.33
2023-02-08T13:33:30.260Z,36.25
2023-02-08T13:35:57.928Z,37.70
2023-02-08T13:38:35.671Z,38.53
2023-02-08T13:41:22.675Z,35.38
2023-02-08T13:43:53.654Z,36.28
2023-02-08T13:46:22.531Z,36.95
2023-02-08T13:48:56.623Z,40.20
2023-02-08T13:51:30.940Z,35.25
2023-02-08T13:53:58.086Z,32.92
2023-02-08T13:56:37.374Z,35.33
2023-02-08T13:59:10.152Z,38.40
2023-02-08T14:01:37.420Z,36.88
2023-02-08T14:04:07.748Z,36.42
2023-02-08T14:07:01.875Z,35.22
2023-02-08T14:09:49.271Z,34.45
2023-02-08T14:12:21.886Z,41.53
2023-02-08T14:15:28.011Z,37.63
2023-02-08T14:17:58.338Z,33.90
2023-02-08T14:20:34.013Z,39.70
2023-02-08T14:23:03.950Z,37.47
2023-02-08T14:25:39.752Z,43.13
2023-02-08T14:28:08.412Z,36.58
2023-02-08T14:30:37.778Z,35.50
2023-02-08T14:33:04.852Z,38.97
2023-02-08T14:35:34.156Z,35.63
2023-02-08T14:38:23.967Z,39.53
2023-02-08T14:41:00.912Z,33.80
2023-02-08T14:43:42.410Z,43.40
2023-02-08T14:46:37.433Z,34.05
2023-02-08T14:49:16.893Z,33.03
2023-02-08T14:52:04.438Z,38.55
2023-02-08T14:54:44.948Z,34.22
2023-02-08T14:57:29.389Z,37.67
2023-02-08T14:59:59.953Z,36.80
2023-02-08T15:02:31.617Z,39.97
2023-02-08T15:04:59.716Z,33.80
2023-02-08T15:07:38.592Z,34.67
2023-02-08T15:10:11.257Z,35.67
2023-02-08T15:12:40.723Z,36.58
2023-02-08T15:15:23.030Z,37.97
2023-02-08T15:17:51.884Z,37.83
2023-02-08T15:20:24.415Z,38.95
2023-02-08T15:23:18.301Z,38.08
2023-02-08T15:25:55.129Z,35.85
2023-02-08T15:28:25.012Z,37.60
2023-02-08T15:30:56.097Z,36.15
2023-02-08T15:33:23.319Z,37.85
2023-02-08T15:36:17.866Z,36.80
2023-02-08T15:38:46.405Z,38.90
2023-02-08T15:41:16.649Z,38.42
2023-02-08T15:43:43.833Z,38.10
2023-02-08T15:46:23.620Z,37.95
2023-02-08T15:48:51.490Z,35.47
2023-02-08T15:51:22.930Z,39.40
2023-02-08T15:53:55.191Z,37.53
2023-02-08T15:56:36.327Z,43.35
2023-02-08T15:59:05.765Z,40.08
2023-02-08T16:01:33.318Z,40.67
2023-02-08T16:04:06.016Z,40.08
2023-02-08T16:06:38.993Z,38.58
2023-02-08T16:09:06.791Z,40.97
2023-02-08T16:11:35.718Z,42.00
2023-02-08T16:14:04.493Z,37.15
2023-02-08T16:16:42.259Z,40.83
2023-02-08T16:19:32.165Z,43.08
2023-02-08T16:22:21.001Z,36.70
2023-02-08T16:24:50.780Z,39.13
2023-02-08T16:27:18.002Z,44.08
2023-02-08T16:29:46.588Z,38.47
2023-02-08T16:32:32.191Z,36.25
2023-02-08T16:35:01.399Z,46.67
2023-02-08T16:37:31.489Z,40.53
2023-02-08T16:40:27.668Z,38.10
2023-02-08T16:43:15.564Z,40.47
2023-02-08T16:45:42.780Z,36.47
2023-02-08T16:48:33.259Z,38.97
2023-02-08T16:51:01.496Z,41.15
2023-02-08T16:53:41.333Z,43.20
2023-02-08T16:56:11.477Z,40.35
2023-02-08T16:58:38.996Z,41.35
2023-02-08T17:01:06.976Z,36.88
2023-02-08T17:03:36.579Z,37.22
2023-02-08T17:06:04.027Z,42.33
2023-02-08T17:08:32.996Z,41.00
2023-02-08T17:11:00.361Z,42.80
2023-02-08T17:13:27.655Z,42.30
2023-02-08T17:15:55.005Z,39.47
2023-02-08T17:18:22.727Z,41.80
2023-02-08T17:20:50.781Z,46.85
2023-02-08T17:23:18.209Z,38.30
2023-02-08T17:25:45.914Z,43.90
2023-02-08T17:28:20.211Z,41.97
2023-02-08T17:30:48.770Z,41.58
2023-02-08T17:33:18.978Z,40.75
2023-02-08T17:35:48.271Z,46.13
2023-02-08T17:38:16.219Z,38.35
2023-02-08T17:40:43.882Z,43.00
2023-02-08T17:43:11.903Z,44.13
2023-02-08T17:45:40.245Z,42.03
2023-02-08T17:48:08.016Z,47.92
2023-02-08T17:50:35.651Z,45.53
2023-02-08T17:53:03.921Z,42.40
2023-02-08T17:55:31.321Z,43.38
2023-02-08T17:57:58.554Z,47.65
2023-02-08T18:00:26.134Z,41.13
2023-02-08T18:02:55.289Z,39.55
2023-02-08T18:05:25.117Z,44.08
2023-02-08T18:07:53.549Z,45.55
2023-02-08T18:10:21.230Z,44.58
2023-02-08T18:12:48.693Z,42.83
2023-02-08T18:15:19.904Z,44.65
2023-02-08T18:17:47.833Z,41.13
2023-02-08T18:20:16.195Z,44.25
2023-02-08T18:22:43.941Z,45.97
2023-02-08T18:25:12.419Z,41.58
2023-02-08T18:27:40.228Z,41.97
2023-02-08T18:30:09.500Z,40.08
2023-02-08T18:32:36.790Z,42.47
2023-02-08T18:35:05.013Z,41.85
2023-02-08T18:37:32.373Z,39.45
2023-02-08T18:40:00.243Z,38.97
2023-02-08T18:42:27.600Z,41.92
2023-02-08T18:44:54.734Z,40.33
2023-02-08T18:47:22.624Z,43.22
2023-02-08T18:49:57.392Z,38.97
2023-02-08T18:52:24.653Z,42.40
2023-02-08T18:54:52.106Z,41.90
2023-02-08T18:57:19.609Z,37.88
2023-02-08T18:59:46.836Z,42.53
2023-02-08T19:02:20.730Z,43.72
2023-02-08T19:04:47.991Z,41.63
2023-02-08T19:07:15.219Z,40.05
2023-02-08T19:09:43.829Z,44.42
2023-02-08T19:12:15.148Z,41.67
2023-02-08T19:14:43.614Z,43.47
2023-02-08T19:17:12.409Z,36.22
2023-02-08T19:19:41.698Z,43.88
2023-02-08T19:22:08.830Z,46.25
2023-02-08T19:24:35.986Z,40.20
2023-02-08T19:27:03.253Z,39.38
2023-02-08T19:29:32.574Z,43.92
2023-02-08T19:31:59.850Z,41.60
2023-02-08T19:34:26.966Z,42.08
2023-02-08T19:36:54.634Z,44.38
2023-02-08T19:39:24.472Z,43.28
2023-02-08T19:41:52.902Z,47.60
2023-02-08T19:44:21.057Z,41.10
2023-02-08T19:46:50.055Z,44.13
2023-02-08T19:49:17.488Z,44.20
2023-02-08T19:51:44.722Z,38.83
2023-02-08T19:54:14.228Z,41.83
2023-02-08T19:56:41.954Z,41.92
2023-02-08T19:59:18.210Z,43.15
2023-02-08T20:01:46.155Z,44.97
2023-02-08T20:04:14.237Z,45.97
2023-02-08T20:06:42.794Z,41.47
2023-02-08T20:09:10.030Z,39.08
2023-02-08T20:11:51.204Z,41.08
2023-02-08T20:16:50.590Z,43.80
2023-02-08T20:19:17.923Z,38.63
2023-02-08T20:21:45.523Z,42.88
2023-02-08T20:24:13.026Z,39.42
2023-02-08T20:26:42.234Z,44.67
2023-02-08T20:29:10.345Z,43.65
2023-02-08T20:31:39.192Z,44.55
2023-02-08T20:34:07.723Z,41.97
2023-02-08T20:36:44.141Z,43.58
2023-02-08T20:39:15.114Z,43.30
2023-02-08T20:41:45.757Z,36.22
2023-02-08T20:44:14.654Z,44.10
2023-02-08T20:46:43.002Z,43.83
2023-02-08T20:49:13.738Z,44.72
2023-02-08T20:51:41.040Z,46.63
2023-02-08T20:54:08.451Z,41.65
2023-02-08T20:56:36.102Z,41.65
2023-02-08T20:59:16.075Z,39.53
2023-02-08T21:01:44.577Z,44.10
2023-02-08T21:04:13.107Z,47.55
2023-02-08T21:06:44.303Z,37.47
2023-02-08T21:09:14.381Z,43.25
2023-02-08T21:11:41.564Z,38.38
2023-02-08T21:14:09.169Z,40.58
2023-02-08T21:16:36.431Z,37.40
2023-02-08T21:19:03.964Z,35.22
2023-02-08T21:21:31.287Z,39.10
2023-02-08T21:23:58.847Z,42.53
2023-02-08T21:26:26.624Z,42.17
2023-02-08T21:28:55.361Z,40.03
2023-02-08T21:31:23.993Z,38.30
2023-02-08T21:33:51.768Z,38.00
2023-02-08T21:36:21.511Z,42.08
2023-02-08T21:38:48.717Z,37.20
2023-02-08T21:41:20.351Z,38.28
2023-02-08T21:43:48.624Z,40.47
2023-02-08T21:46:16.845Z,42.08
2023-02-08T21:49:03.289Z,35.67
2023-02-08T21:51:49.630Z,37.13
2023-02-08T21:54:37.171Z,39.30
2023-02-08T21:57:08.743Z,38.40
2023-02-08T21:59:37.257Z,37.35
2023-02-08T22:02:05.845Z,37.25
2023-02-08T22:04:36.410Z,34.83
2023-02-08T22:07:04.707Z,34.90
2023-02-08T22:09:31.972Z,34.85
2023-02-08T22:11:59.247Z,42.50
2023-02-08T22:14:26.455Z,38.35
2023-02-08T22:16:53.650Z,33.60
2023-02-08T22:19:20.882Z,32.78
2023-02-08T22:21:48.118Z,35.08
2023-02-08T22:24:15.302Z,31.80
2023-02-08T22:26:43.881Z,31.35
2023-02-08T22:29:11.072Z,34.15
2023-02-08T22:31:38.316Z,36.65
2023-02-08T22:34:05.607Z,31.52
2023-02-08T22:36:32.759Z,31.92
2023-02-08T22:39:00.008Z,32.67
2023-02-08T22:41:27.307Z,31.75
2023-02-08T22:43:54.517Z,37.85
2023-02-08T22:46:21.770Z,35.63
2023-02-08T22:48:49.108Z,30.17
2023-02-08T22:51:18.635Z,35.50
2023-02-08T22:53:46.138Z,36.60
2023-02-08T22:56:14.877Z,34.35
2023-02-08T22:58:42.272Z,32.72
2023-02-08T23:01:14.990Z,36.10
2023-02-08T23:03:42.952Z,33.30
2023-02-08T23:06:15.142Z,33.08
2023-02-08T23:08:42.714Z,29.55
2023-02-08T23:11:36.382Z,31.38
2023-02-08T23:14:27.809Z,33.28
2023-02-08T23:21:51.040Z,31.58
2023-02-08T23:24:18.469Z,31.08
2023-02-08T23:26:45.650Z,31.48
2023-02-08T23:29:12.764Z,29.08
2023-02-08T23:31:40.835Z,31.10
2023-02-08T23:34:08.043Z,27.95
2023-02-08T23:36:35.218Z,29.70
2023-02-08T23:39:03.367Z,28.35
2023-02-08T23:41:30.586Z,31.52
2023-02-08T23:43:57.849Z,29.92
2023-02-08T23:46:27.560Z,32.95
2023-02-08T23:48:55.345Z,34.00
2023-02-08T23:51:24.418Z,30.23
2023-02-08T23:53:52.357Z,29.98
2023-02-08T23:56:25.024Z,30.45
2023-02-08T23:58:54.646Z,28.08
